HOURLY OBS INDEX

063

Central Tablelands - south

BATHURST AIRPORT AWS

Site: 063291
Alt: 744.5m
7km E of BATHURST


  Time     Wind        Temp  DP   Baro     Rain since   Rain past  Vis(m), Cloud(base in m), Weather
  local        km/h                         9am  last   hr   10m    
Thu 18:00  SSW 15/ 19  28.3 11.8  1014.6    0.0   0.0   0.0   0.0   10000|SC2040 
Thu 18:30    S  9/ 15  28.4 12.7  1014.8    0.0   0.0   0.0   0.0   10000|SC2010 
Thu 19:00    S  9/ 11  26.9 12.2  1015.1    0.0   0.0   0.0   0.0   10000 
Thu 19:30   SW  9/ 11  25.1 14.3  1015.5    0.0   0.0   0.0   0.0   10000 
Thu 20:00    C  0/  0  25.0 12.9  1015.8    0.0   0.0   0.0   0.0   10000 
Thu 20:30  SSW  6/  6  24.3 12.9  1016.1    0.0   0.0   0.0   0.0   10000 
Thu 21:00   SE  7/  9  23.6 12.6  1016.5    0.0   0.0   0.0   0.0   10000 
Thu 21:30    E  9/ 11  21.5 12.9  1016.7    0.0   0.0   0.0   0.0   10000 
Thu 22:00  ESE  9/ 13  21.0 13.7  1017.1    0.0   0.0   0.0   0.0   10000 
Thu 22:30   SE 13/ 17  20.7 14.4  1017.7    0.0   0.0   0.0   0.0   10000 
Thu 23:00   SE 13/ 17  20.3 14.7  1017.7    0.0   0.0   0.0   0.0   10000 

MARRANGAROO (DEFENCE)

Site: 063308
Alt: 955.0m
6km NNW of LITHGOW


  Time     Wind        Temp  DP   Baro     Rain since   Rain past  Vis(m), Cloud(base in m), Weather
  local        km/h                         9am  last   hr   10m    
Thu 18:00    W  6/  9  27.4 11.8  ------    0.0   0.0   0.0   0.0   ----- 
Thu 18:30  WSW  6/  9  26.7 12.4  ------    0.0   0.0   0.0   0.0   ----- 
Thu 19:00    W  4/  7  26.5 11.4  ------    0.0   0.0   0.0   0.0   ----- 
Thu 19:30    C  0/  0  22.1 14.0  ------    0.0   0.0   0.0   0.0   ----- 
Thu 20:00    C  0/  4  20.3 15.1  ------    0.0   0.0   0.0   0.0   ----- 
Thu 20:30    E  4/  9  18.7 14.2  ------    0.0   0.0   0.0   0.0   ----- 
Thu 21:00    E  7/ 13  21.7 14.1  ------    0.0   0.0   0.0   0.0   ----- 
Thu 21:30    E  9/ 20  21.3 13.7  ------    0.0   0.0   0.0   0.0   ----- 
Thu 22:00    E  7/ 19  20.7 12.9  ------    0.0   0.0   0.0   0.0   ----- 
Thu 22:30   SE  6/  9  19.7 12.7  ------    0.0   0.0   0.0   0.0   ----- 
Thu 23:00    E  7/ 13  19.2 12.5  ------    0.0   0.0   0.0   0.0   ----- 

MOUNT BOYCE AWS

Site: 063292
Alt: 1080.0m
11km NNW of KATOOMBA


  Time     Wind        Temp  DP   Baro     Rain since   Rain past  Vis(m), Cloud(base in m), Weather
  local        km/h                         9am  last   hr   10m    
Thu 18:00  SSW  9/ 15  28.6 10.3  ------    0.0   0.0   0.0   0.0   10000|SC1980 BR2340 
Thu 18:30  ESE  2/  9  26.7 10.0  ------    0.0   0.0   0.0   0.0   10000|SC1980 SC2460 
Thu 19:00  ESE  4/  9  24.7 10.2  ------    0.0   0.0   0.0   0.0   10000|SC2040 
Thu 19:30    E 11/ 19  23.0 11.7  ------    0.0   0.0   0.0   0.0   10000 
Thu 20:00    E 13/ 22  21.6 12.7  ------    0.0   0.0   0.0   0.0   10000 
Thu 20:30    E 13/ 24  20.3 12.5  ------    0.0   0.0   0.0   0.0   10000 
Thu 21:00    E 13/ 24  19.3 11.3  ------    0.0   0.0   0.0   0.0   10000 
Thu 21:30  ENE 15/ 26  18.8 10.9  ------    0.0   0.0   0.0   0.0   10000|SC1860 
Thu 22:00    E 13/ 19  18.0 11.3  ------    0.0   0.0   0.0   0.0   10000 
Thu 22:30    E 11/ 20  16.4 12.4  ------    0.0   0.0   0.0   0.0   10000 
Thu 22:47  ENE 13/ 22  15.8 12.9  ------    0.0   0.0  ----   0.0   10000|BR 150 
Thu 23:00  ENE 13/ 22  15.6 13.3  ------    0.0   0.0   0.0   0.0   10000|BR  90 OC 210 

ORANGE AIRPORT AWS

Site: 063303
Alt: 944.7m
11km SSE of ORANGE


  Time     Wind        Temp  DP   Baro     Rain since   Rain past  Vis(m), Cloud(base in m), Weather
  local        km/h                         9am  last   hr   10m    
Thu 18:00  SSW 11/ 15  26.3 11.6  1015.9    0.0   0.0   0.0   0.0   10000 
Thu 18:30    S  9/ 13  25.9 12.4  1016.2    0.0   0.0   0.0   0.0   10000 
Thu 19:00    S  7/  9  24.6 12.9  1016.5    0.0   0.0   0.0   0.0   10000 
Thu 19:30  SSE  7/  9  22.6 12.8  1016.8    0.0   0.0   0.0   0.0   10000 
Thu 20:00    C  0/  6  21.1 12.8  1017.3    0.0   0.0   0.0   0.0   10000 
Thu 20:30    C  0/  0  19.3 13.0  1017.6    0.0   0.0   0.0   0.0   10000 
Thu 21:00    C  0/  0  17.9 12.6  1017.8    0.0   0.0   0.0   0.0   10000 
Thu 21:30    C  0/  0  17.2 12.9  1018.1    0.0   0.0   0.0   0.0   10000 
Thu 22:00    C  0/  0  16.6 12.9  1018.4    0.0   0.0   0.0   0.0   10000 
Thu 22:30  SSE  6/  7  16.8 12.9  1018.7    0.0   0.0   0.0   0.0   10000 
Thu 23:00  ENE  2/  7  15.0 12.0  1018.8    0.0   0.0   0.0   0.0   10000